sensor_id;sensor_type;location;lat;lon;timestamp;P1;durP1;ratioP1;P2;durP2;ratioP2
21181;SDS011;10749;46.296;7.524;2023-07-16T00:02:20;6.18;;;4.25;;
21181;SDS011;10749;46.296;7.524;2023-07-16T00:04:45;4.97;;;4.30;;
21181;SDS011;10749;46.296;7.524;2023-07-16T00:07:10;5.53;;;3.95;;
21181;SDS011;10749;46.296;7.524;2023-07-16T00:09:36;5.25;;;4.30;;
21181;SDS011;10749;46.296;7.524;2023-07-16T00:12:01;5.18;;;4.32;;
21181;SDS011;10749;46.296;7.524;2023-07-16T00:14:27;5.03;;;4.22;;
21181;SDS011;10749;46.296;7.524;2023-07-16T00:16:52;5.72;;;4.55;;
21181;SDS011;10749;46.296;7.524;2023-07-16T00:19:17;6.22;;;4.20;;
21181;SDS011;10749;46.296;7.524;2023-07-16T00:21:43;6.50;;;5.00;;
21181;SDS011;10749;46.296;7.524;2023-07-16T00:24:08;4.72;;;4.15;;
21181;SDS011;10749;46.296;7.524;2023-07-16T00:26:33;5.95;;;4.60;;
21181;SDS011;10749;46.296;7.524;2023-07-16T00:28:59;5.55;;;4.45;;
21181;SDS011;10749;46.296;7.524;2023-07-16T00:31:24;6.22;;;4.43;;
21181;SDS011;10749;46.296;7.524;2023-07-16T00:33:49;6.72;;;4.13;;
21181;SDS011;10749;46.296;7.524;2023-07-16T00:36:15;8.40;;;4.43;;
21181;SDS011;10749;46.296;7.524;2023-07-16T00:38:40;6.00;;;4.38;;
21181;SDS011;10749;46.296;7.524;2023-07-16T00:41:06;5.45;;;4.30;;
21181;SDS011;10749;46.296;7.524;2023-07-16T00:43:32;6.53;;;3.90;;
21181;SDS011;10749;46.296;7.524;2023-07-16T00:45:57;5.68;;;3.80;;
21181;SDS011;10749;46.296;7.524;2023-07-16T00:48:23;5.63;;;3.30;;
21181;SDS011;10749;46.296;7.524;2023-07-16T00:50:49;7.60;;;3.15;;
21181;SDS011;10749;46.296;7.524;2023-07-16T00:53:17;8.05;;;3.13;;
21181;SDS011;10749;46.296;7.524;2023-07-16T00:55:44;3.95;;;2.85;;
21181;SDS011;10749;46.296;7.524;2023-07-16T00:58:10;6.13;;;3.20;;
21181;SDS011;10749;46.296;7.524;2023-07-16T01:00:36;3.85;;;2.55;;
21181;SDS011;10749;46.296;7.524;2023-07-16T01:03:03;6.18;;;3.00;;
21181;SDS011;10749;46.296;7.524;2023-07-16T01:05:33;3.05;;;2.30;;
21181;SDS011;10749;46.296;7.524;2023-07-16T01:08:04;3.63;;;2.60;;
21181;SDS011;10749;46.296;7.524;2023-07-16T01:10:33;5.50;;;2.30;;
21181;SDS011;10749;46.296;7.524;2023-07-16T01:12:59;4.13;;;2.50;;
21181;SDS011;10749;46.296;7.524;2023-07-16T01:15:25;3.97;;;2.40;;
21181;SDS011;10749;46.296;7.524;2023-07-16T01:17:50;4.95;;;2.25;;
21181;SDS011;10749;46.296;7.524;2023-07-16T01:20:16;4.82;;;2.03;;
21181;SDS011;10749;46.296;7.524;2023-07-16T01:22:47;6.47;;;2.20;;
21181;SDS011;10749;46.296;7.524;2023-07-16T01:25:20;3.53;;;2.17;;
21181;SDS011;10749;46.296;7.524;2023-07-16T01:30:30;5.95;;;2.47;;
21181;SDS011;10749;46.296;7.524;2023-07-16T01:32:57;5.18;;;2.30;;
21181;SDS011;10749;46.296;7.524;2023-07-16T01:35:22;5.72;;;2.38;;
21181;SDS011;10749;46.296;7.524;2023-07-16T01:37:48;3.00;;;2.10;;
21181;SDS011;10749;46.296;7.524;2023-07-16T01:40:13;3.50;;;2.00;;
21181;SDS011;10749;46.296;7.524;2023-07-16T01:42:39;4.35;;;2.08;;
21181;SDS011;10749;46.296;7.524;2023-07-16T01:45:05;2.95;;;1.95;;
21181;SDS011;10749;46.296;7.524;2023-07-16T01:47:35;3.28;;;1.95;;
21181;SDS011;10749;46.296;7.524;2023-07-16T01:50:04;3.42;;;1.70;;
21181;SDS011;10749;46.296;7.524;2023-07-16T01:52:30;3.75;;;2.03;;
21181;SDS011;10749;46.296;7.524;2023-07-16T01:54:55;3.20;;;1.75;;
21181;SDS011;10749;46.296;7.524;2023-07-16T01:57:21;4.07;;;2.30;;
21181;SDS011;10749;46.296;7.524;2023-07-16T01:59:46;3.83;;;2.10;;
21181;SDS011;10749;46.296;7.524;2023-07-16T02:02:11;4.25;;;2.20;;
21181;SDS011;10749;46.296;7.524;2023-07-16T02:04:37;2.75;;;1.70;;
21181;SDS011;10749;46.296;7.524;2023-07-16T02:07:02;3.08;;;1.98;;
21181;SDS011;10749;46.296;7.524;2023-07-16T02:09:28;3.53;;;2.35;;
21181;SDS011;10749;46.296;7.524;2023-07-16T02:11:54;3.92;;;1.95;;
21181;SDS011;10749;46.296;7.524;2023-07-16T02:14:19;6.40;;;2.20;;
21181;SDS011;10749;46.296;7.524;2023-07-16T02:16:44;4.40;;;2.10;;
21181;SDS011;10749;46.296;7.524;2023-07-16T02:19:10;4.30;;;2.15;;
21181;SDS011;10749;46.296;7.524;2023-07-16T02:21:35;2.90;;;1.80;;
21181;SDS011;10749;46.296;7.524;2023-07-16T02:24:00;3.92;;;1.77;;
21181;SDS011;10749;46.296;7.524;2023-07-16T02:26:25;2.85;;;1.70;;
21181;SDS011;10749;46.296;7.524;2023-07-16T02:28:51;4.70;;;1.83;;
21181;SDS011;10749;46.296;7.524;2023-07-16T02:31:16;4.72;;;1.90;;
21181;SDS011;10749;46.296;7.524;2023-07-16T02:33:41;3.50;;;2.08;;
21181;SDS011;10749;46.296;7.524;2023-07-16T02:36:07;3.47;;;1.80;;
21181;SDS011;10749;46.296;7.524;2023-07-16T02:38:32;2.83;;;1.80;;
21181;SDS011;10749;46.296;7.524;2023-07-16T02:40:57;5.53;;;1.80;;
21181;SDS011;10749;46.296;7.524;2023-07-16T02:43:23;3.30;;;1.88;;
21181;SDS011;10749;46.296;7.524;2023-07-16T02:45:48;5.10;;;1.92;;
21181;SDS011;10749;46.296;7.524;2023-07-16T02:48:13;2.35;;;2.00;;
21181;SDS011;10749;46.296;7.524;2023-07-16T02:50:39;2.97;;;1.80;;
21181;SDS011;10749;46.296;7.524;2023-07-16T02:53:05;3.78;;;1.77;;
21181;SDS011;10749;46.296;7.524;2023-07-16T02:55:30;4.05;;;2.05;;
21181;SDS011;10749;46.296;7.524;2023-07-16T02:57:56;3.03;;;1.95;;
21181;SDS011;10749;46.296;7.524;2023-07-16T03:00:21;4.45;;;1.67;;
21181;SDS011;10749;46.296;7.524;2023-07-16T03:02:47;2.88;;;1.98;;
21181;SDS011;10749;46.296;7.524;2023-07-16T03:05:14;4.22;;;1.92;;
21181;SDS011;10749;46.296;7.524;2023-07-16T03:07:39;4.10;;;1.50;;
21181;SDS011;10749;46.296;7.524;2023-07-16T03:10:04;2.08;;;1.58;;
21181;SDS011;10749;46.296;7.524;2023-07-16T03:12:30;3.25;;;1.55;;
21181;SDS011;10749;46.296;7.524;2023-07-16T03:14:55;2.70;;;1.77;;
21181;SDS011;10749;46.296;7.524;2023-07-16T03:17:21;2.20;;;1.63;;
21181;SDS011;10749;46.296;7.524;2023-07-16T03:19:49;2.47;;;1.73;;
21181;SDS011;10749;46.296;7.524;2023-07-16T03:22:14;2.28;;;1.98;;
21181;SDS011;10749;46.296;7.524;2023-07-16T03:24:40;2.75;;;1.60;;
21181;SDS011;10749;46.296;7.524;2023-07-16T03:27:05;4.82;;;1.80;;
21181;SDS011;10749;46.296;7.524;2023-07-16T03:29:32;4.70;;;1.67;;
21181;SDS011;10749;46.296;7.524;2023-07-16T03:31:58;2.08;;;1.45;;
21181;SDS011;10749;46.296;7.524;2023-07-16T03:34:24;2.60;;;1.90;;
21181;SDS011;10749;46.296;7.524;2023-07-16T03:36:49;4.93;;;1.50;;
21181;SDS011;10749;46.296;7.524;2023-07-16T03:39:14;3.83;;;1.88;;
21181;SDS011;10749;46.296;7.524;2023-07-16T03:41:40;3.97;;;1.75;;
21181;SDS011;10749;46.296;7.524;2023-07-16T03:44:05;1.83;;;1.58;;
21181;SDS011;10749;46.296;7.524;2023-07-16T03:46:30;2.72;;;1.60;;
21181;SDS011;10749;46.296;7.524;2023-07-16T03:48:55;2.47;;;1.50;;
21181;SDS011;10749;46.296;7.524;2023-07-16T03:51:21;3.00;;;1.48;;
21181;SDS011;10749;46.296;7.524;2023-07-16T03:53:46;2.60;;;1.63;;
21181;SDS011;10749;46.296;7.524;2023-07-16T03:56:11;1.80;;;1.50;;
21181;SDS011;10749;46.296;7.524;2023-07-16T03:58:37;1.98;;;1.50;;
21181;SDS011;10749;46.296;7.524;2023-07-16T04:01:02;4.30;;;1.73;;
21181;SDS011;10749;46.296;7.524;2023-07-16T04:03:27;3.00;;;1.70;;
21181;SDS011;10749;46.296;7.524;2023-07-16T04:06:00;2.55;;;1.50;;
21181;SDS011;10749;46.296;7.524;2023-07-16T04:08:29;1.63;;;1.33;;
21181;SDS011;10749;46.296;7.524;2023-07-16T04:10:55;1.92;;;1.70;;
21181;SDS011;10749;46.296;7.524;2023-07-16T04:13:20;5.22;;;1.73;;
21181;SDS011;10749;46.296;7.524;2023-07-16T04:15:45;2.15;;;1.60;;
21181;SDS011;10749;46.296;7.524;2023-07-16T04:18:10;2.92;;;1.70;;
21181;SDS011;10749;46.296;7.524;2023-07-16T04:20:36;2.65;;;1.70;;
21181;SDS011;10749;46.296;7.524;2023-07-16T04:23:01;2.03;;;1.42;;
21181;SDS011;10749;46.296;7.524;2023-07-16T04:25:26;2.58;;;1.55;;
21181;SDS011;10749;46.296;7.524;2023-07-16T04:27:52;2.05;;;1.42;;
21181;SDS011;10749;46.296;7.524;2023-07-16T04:30:17;3.45;;;1.65;;
21181;SDS011;10749;46.296;7.524;2023-07-16T04:32:42;2.80;;;1.85;;
21181;SDS011;10749;46.296;7.524;2023-07-16T04:35:07;2.45;;;1.50;;
21181;SDS011;10749;46.296;7.524;2023-07-16T04:37:33;2.63;;;1.70;;
21181;SDS011;10749;46.296;7.524;2023-07-16T04:39:58;2.15;;;1.60;;
21181;SDS011;10749;46.296;7.524;2023-07-16T04:42:24;4.40;;;1.50;;
21181;SDS011;10749;46.296;7.524;2023-07-16T04:44:49;2.83;;;1.52;;
21181;SDS011;10749;46.296;7.524;2023-07-16T04:47:14;1.52;;;1.40;;
21181;SDS011;10749;46.296;7.524;2023-07-16T04:49:39;2.17;;;1.45;;
21181;SDS011;10749;46.296;7.524;2023-07-16T04:52:05;4.53;;;1.60;;
21181;SDS011;10749;46.296;7.524;2023-07-16T04:54:37;2.10;;;1.60;;
21181;SDS011;10749;46.296;7.524;2023-07-16T04:57:03;3.83;;;1.77;;
21181;SDS011;10749;46.296;7.524;2023-07-16T04:59:29;3.72;;;1.58;;
21181;SDS011;10749;46.296;7.524;2023-07-16T05:01:54;5.20;;;1.88;;
21181;SDS011;10749;46.296;7.524;2023-07-16T05:04:20;2.30;;;1.50;;
21181;SDS011;10749;46.296;7.524;2023-07-16T05:06:45;3.42;;;2.00;;
21181;SDS011;10749;46.296;7.524;2023-07-16T05:09:10;4.82;;;1.60;;
21181;SDS011;10749;46.296;7.524;2023-07-16T05:11:36;4.70;;;1.65;;
21181;SDS011;10749;46.296;7.524;2023-07-16T05:14:03;3.00;;;1.55;;
21181;SDS011;10749;46.296;7.524;2023-07-16T05:16:28;2.58;;;1.40;;
21181;SDS011;10749;46.296;7.524;2023-07-16T05:18:53;2.60;;;1.52;;
21181;SDS011;10749;46.296;7.524;2023-07-16T05:21:19;3.53;;;1.60;;
21181;SDS011;10749;46.296;7.524;2023-07-16T05:23:44;1.60;;;1.30;;
21181;SDS011;10749;46.296;7.524;2023-07-16T05:26:09;1.85;;;1.33;;
21181;SDS011;10749;46.296;7.524;2023-07-16T05:28:35;3.13;;;1.67;;
21181;SDS011;10749;46.296;7.524;2023-07-16T05:31:02;3.13;;;1.90;;
21181;SDS011;10749;46.296;7.524;2023-07-16T05:33:27;3.20;;;1.45;;
21181;SDS011;10749;46.296;7.524;2023-07-16T05:35:53;2.65;;;1.33;;
21181;SDS011;10749;46.296;7.524;2023-07-16T05:38:18;4.97;;;1.60;;
21181;SDS011;10749;46.296;7.524;2023-07-16T05:40:44;2.63;;;1.60;;
21181;SDS011;10749;46.296;7.524;2023-07-16T05:43:09;1.88;;;1.42;;
21181;SDS011;10749;46.296;7.524;2023-07-16T05:45:34;1.90;;;1.40;;
21181;SDS011;10749;46.296;7.524;2023-07-16T05:48:00;2.60;;;1.50;;
21181;SDS011;10749;46.296;7.524;2023-07-16T05:50:25;1.90;;;1.65;;
21181;SDS011;10749;46.296;7.524;2023-07-16T05:52:50;2.17;;;1.35;;
21181;SDS011;10749;46.296;7.524;2023-07-16T05:55:16;2.90;;;1.60;;
21181;SDS011;10749;46.296;7.524;2023-07-16T05:57:42;2.40;;;1.60;;
21181;SDS011;10749;46.296;7.524;2023-07-16T06:00:07;1.77;;;1.40;;
21181;SDS011;10749;46.296;7.524;2023-07-16T06:02:34;1.92;;;1.60;;
21181;SDS011;10749;46.296;7.524;2023-07-16T06:04:59;3.15;;;1.67;;
21181;SDS011;10749;46.296;7.524;2023-07-16T06:07:24;1.92;;;1.52;;
21181;SDS011;10749;46.296;7.524;2023-07-16T06:09:49;2.25;;;1.48;;
21181;SDS011;10749;46.296;7.524;2023-07-16T06:12:15;2.67;;;1.67;;
21181;SDS011;10749;46.296;7.524;2023-07-16T06:14:40;2.17;;;1.65;;
21181;SDS011;10749;46.296;7.524;2023-07-16T06:17:06;2.10;;;1.50;;
21181;SDS011;10749;46.296;7.524;2023-07-16T06:19:31;1.95;;;1.35;;
21181;SDS011;10749;46.296;7.524;2023-07-16T06:21:56;2.47;;;1.70;;
21181;SDS011;10749;46.296;7.524;2023-07-16T06:24:22;3.35;;;1.42;;
21181;SDS011;10749;46.296;7.524;2023-07-16T06:26:47;1.92;;;1.58;;
21181;SDS011;10749;46.296;7.524;2023-07-16T06:29:12;1.50;;;1.40;;
21181;SDS011;10749;46.296;7.524;2023-07-16T06:31:38;2.58;;;1.67;;
21181;SDS011;10749;46.296;7.524;2023-07-16T06:34:03;2.15;;;1.50;;
21181;SDS011;10749;46.296;7.524;2023-07-16T06:36:28;3.10;;;1.70;;
21181;SDS011;10749;46.296;7.524;2023-07-16T06:38:54;2.95;;;1.70;;
21181;SDS011;10749;46.296;7.524;2023-07-16T06:41:19;3.08;;;1.50;;
21181;SDS011;10749;46.296;7.524;2023-07-16T06:43:44;2.08;;;1.50;;
21181;SDS011;10749;46.296;7.524;2023-07-16T06:46:10;2.80;;;1.70;;
21181;SDS011;10749;46.296;7.524;2023-07-16T06:48:35;2.20;;;1.73;;
21181;SDS011;10749;46.296;7.524;2023-07-16T06:51:00;2.63;;;1.80;;
21181;SDS011;10749;46.296;7.524;2023-07-16T06:53:26;2.70;;;1.77;;
21181;SDS011;10749;46.296;7.524;2023-07-16T06:55:51;1.75;;;1.23;;
21181;SDS011;10749;46.296;7.524;2023-07-16T06:58:17;1.88;;;1.50;;
21181;SDS011;10749;46.296;7.524;2023-07-16T07:00:42;2.22;;;1.40;;
21181;SDS011;10749;46.296;7.524;2023-07-16T07:03:07;3.65;;;1.77;;
21181;SDS011;10749;46.296;7.524;2023-07-16T07:05:33;2.90;;;1.60;;
21181;SDS011;10749;46.296;7.524;2023-07-16T07:08:00;2.28;;;1.80;;
21181;SDS011;10749;46.296;7.524;2023-07-16T07:10:26;2.90;;;1.60;;
21181;SDS011;10749;46.296;7.524;2023-07-16T07:12:52;2.42;;;1.58;;
21181;SDS011;10749;46.296;7.524;2023-07-16T07:15:17;1.60;;;1.50;;
21181;SDS011;10749;46.296;7.524;2023-07-16T07:17:42;2.15;;;1.67;;
21181;SDS011;10749;46.296;7.524;2023-07-16T07:20:11;1.85;;;1.67;;
21181;SDS011;10749;46.296;7.524;2023-07-16T07:22:37;1.73;;;1.40;;
21181;SDS011;10749;46.296;7.524;2023-07-16T07:25:03;3.42;;;1.85;;
21181;SDS011;10749;46.296;7.524;2023-07-16T07:27:28;4.55;;;1.88;;
21181;SDS011;10749;46.296;7.524;2023-07-16T07:29:54;2.25;;;1.80;;
21181;SDS011;10749;46.296;7.524;2023-07-16T07:32:20;3.17;;;1.70;;
21181;SDS011;10749;46.296;7.524;2023-07-16T07:34:46;4.18;;;2.10;;
21181;SDS011;10749;46.296;7.524;2023-07-16T07:37:12;2.38;;;1.88;;
21181;SDS011;10749;46.296;7.524;2023-07-16T07:39:37;2.80;;;1.58;;
21181;SDS011;10749;46.296;7.524;2023-07-16T07:42:03;4.32;;;1.95;;
21181;SDS011;10749;46.296;7.524;2023-07-16T07:44:28;3.10;;;1.80;;
21181;SDS011;10749;46.296;7.524;2023-07-16T07:46:54;2.13;;;1.55;;
21181;SDS011;10749;46.296;7.524;2023-07-16T07:49:19;2.10;;;1.65;;
21181;SDS011;10749;46.296;7.524;2023-07-16T07:51:44;3.85;;;1.90;;
21181;SDS011;10749;46.296;7.524;2023-07-16T07:54:11;2.72;;;2.00;;
21181;SDS011;10749;46.296;7.524;2023-07-16T07:56:36;2.63;;;1.45;;
21181;SDS011;10749;46.296;7.524;2023-07-16T07:59:01;2.53;;;1.65;;
21181;SDS011;10749;46.296;7.524;2023-07-16T08:01:27;3.15;;;1.85;;
21181;SDS011;10749;46.296;7.524;2023-07-16T08:03:53;3.63;;;1.75;;
21181;SDS011;10749;46.296;7.524;2023-07-16T08:06:18;2.10;;;1.70;;
21181;SDS011;10749;46.296;7.524;2023-07-16T08:08:43;2.35;;;1.80;;
21181;SDS011;10749;46.296;7.524;2023-07-16T08:11:08;2.15;;;1.70;;
21181;SDS011;10749;46.296;7.524;2023-07-16T08:13:34;2.47;;;1.80;;
21181;SDS011;10749;46.296;7.524;2023-07-16T08:15:59;2.28;;;2.05;;
21181;SDS011;10749;46.296;7.524;2023-07-16T08:18:24;3.97;;;1.80;;
21181;SDS011;10749;46.296;7.524;2023-07-16T08:20:49;2.88;;;1.73;;
21181;SDS011;10749;46.296;7.524;2023-07-16T08:23:15;3.22;;;1.92;;
21181;SDS011;10749;46.296;7.524;2023-07-16T08:25:41;4.28;;;1.92;;
21181;SDS011;10749;46.296;7.524;2023-07-16T08:28:07;2.80;;;2.15;;
21181;SDS011;10749;46.296;7.524;2023-07-16T08:30:33;3.47;;;2.10;;
21181;SDS011;10749;46.296;7.524;2023-07-16T08:32:58;2.60;;;1.70;;
21181;SDS011;10749;46.296;7.524;2023-07-16T08:35:24;4.47;;;2.03;;
21181;SDS011;10749;46.296;7.524;2023-07-16T08:37:49;2.30;;;2.10;;
21181;SDS011;10749;46.296;7.524;2023-07-16T08:40:15;3.83;;;2.20;;
21181;SDS011;10749;46.296;7.524;2023-07-16T08:42:40;4.70;;;2.30;;
21181;SDS011;10749;46.296;7.524;2023-07-16T08:45:10;3.22;;;2.10;;
21181;SDS011;10749;46.296;7.524;2023-07-16T08:47:36;3.65;;;2.25;;
21181;SDS011;10749;46.296;7.524;2023-07-16T08:50:01;2.85;;;2.35;;
21181;SDS011;10749;46.296;7.524;2023-07-16T08:52:27;3.58;;;2.50;;
21181;SDS011;10749;46.296;7.524;2023-07-16T08:54:53;4.22;;;2.47;;
21181;SDS011;10749;46.296;7.524;2023-07-16T08:57:19;4.50;;;2.67;;
21181;SDS011;10749;46.296;7.524;2023-07-16T08:59:47;2.30;;;2.10;;
21181;SDS011;10749;46.296;7.524;2023-07-16T09:02:14;4.75;;;2.20;;
21181;SDS011;10749;46.296;7.524;2023-07-16T09:04:42;2.70;;;2.25;;
21181;SDS011;10749;46.296;7.524;2023-07-16T09:07:07;2.58;;;2.38;;
21181;SDS011;10749;46.296;7.524;2023-07-16T09:09:32;4.78;;;2.15;;
21181;SDS011;10749;46.296;7.524;2023-07-16T09:11:58;5.40;;;2.45;;
21181;SDS011;10749;46.296;7.524;2023-07-16T09:14:23;3.58;;;2.33;;
21181;SDS011;10749;46.296;7.524;2023-07-16T09:16:49;2.83;;;2.42;;
21181;SDS011;10749;46.296;7.524;2023-07-16T09:19:15;2.55;;;2.33;;
21181;SDS011;10749;46.296;7.524;2023-07-16T09:21:45;2.63;;;2.42;;
21181;SDS011;10749;46.296;7.524;2023-07-16T09:24:11;3.83;;;2.67;;
21181;SDS011;10749;46.296;7.524;2023-07-16T09:26:37;4.60;;;2.50;;
21181;SDS011;10749;46.296;7.524;2023-07-16T09:29:06;2.63;;;2.10;;
21181;SDS011;10749;46.296;7.524;2023-07-16T09:31:32;3.00;;;2.47;;
21181;SDS011;10749;46.296;7.524;2023-07-16T09:33:58;5.32;;;2.85;;
21181;SDS011;10749;46.296;7.524;2023-07-16T09:36:26;4.07;;;2.45;;
21181;SDS011;10749;46.296;7.524;2023-07-16T09:38:53;3.55;;;2.65;;
21181;SDS011;10749;46.296;7.524;2023-07-16T09:41:20;4.18;;;2.70;;
21181;SDS011;10749;46.296;7.524;2023-07-16T09:43:46;3.85;;;3.00;;
21181;SDS011;10749;46.296;7.524;2023-07-16T09:46:11;5.40;;;3.00;;
21181;SDS011;10749;46.296;7.524;2023-07-16T09:48:36;5.22;;;3.88;;
21181;SDS011;10749;46.296;7.524;2023-07-16T09:51:02;4.78;;;2.63;;
21181;SDS011;10749;46.296;7.524;2023-07-16T09:53:27;5.03;;;3.47;;
21181;SDS011;10749;46.296;7.524;2023-07-16T09:55:55;4.22;;;2.92;;
21181;SDS011;10749;46.296;7.524;2023-07-16T09:58:23;4.47;;;3.15;;
21181;SDS011;10749;46.296;7.524;2023-07-16T10:00:50;4.25;;;2.50;;
21181;SDS011;10749;46.296;7.524;2023-07-16T10:03:16;3.10;;;2.80;;
21181;SDS011;10749;46.296;7.524;2023-07-16T10:05:42;4.35;;;2.72;;
21181;SDS011;10749;46.296;7.524;2023-07-16T10:08:15;5.57;;;2.90;;
21181;SDS011;10749;46.296;7.524;2023-07-16T10:10:42;5.65;;;3.85;;
21181;SDS011;10749;46.296;7.524;2023-07-16T10:13:08;3.05;;;2.75;;
21181;SDS011;10749;46.296;7.524;2023-07-16T10:15:36;3.83;;;2.60;;
21181;SDS011;10749;46.296;7.524;2023-07-16T10:18:01;3.67;;;3.00;;
21181;SDS011;10749;46.296;7.524;2023-07-16T10:22:56;4.03;;;2.83;;
21181;SDS011;10749;46.296;7.524;2023-07-16T10:25:22;4.07;;;2.90;;
21181;SDS011;10749;46.296;7.524;2023-07-16T10:27:50;4.00;;;2.78;;
21181;SDS011;10749;46.296;7.524;2023-07-16T10:30:16;3.25;;;2.95;;
21181;SDS011;10749;46.296;7.524;2023-07-16T10:32:43;6.05;;;2.50;;
21181;SDS011;10749;46.296;7.524;2023-07-16T10:35:09;3.80;;;2.80;;
21181;SDS011;10749;46.296;7.524;2023-07-16T10:37:35;3.15;;;2.83;;
21181;SDS011;10749;46.296;7.524;2023-07-16T10:40:01;4.57;;;2.60;;
21181;SDS011;10749;46.296;7.524;2023-07-16T10:42:30;4.18;;;2.58;;
21181;SDS011;10749;46.296;7.524;2023-07-16T10:45:01;3.75;;;2.90;;
21181;SDS011;10749;46.296;7.524;2023-07-16T10:47:34;6.78;;;3.88;;
21181;SDS011;10749;46.296;7.524;2023-07-16T10:50:04;4.28;;;2.97;;
21181;SDS011;10749;46.296;7.524;2023-07-16T10:52:33;2.90;;;2.50;;
21181;SDS011;10749;46.296;7.524;2023-07-16T10:54:59;3.47;;;2.88;;
21181;SDS011;10749;46.296;7.524;2023-07-16T10:57:24;4.63;;;2.60;;
21181;SDS011;10749;46.296;7.524;2023-07-16T10:59:51;2.90;;;2.50;;
21181;SDS011;10749;46.296;7.524;2023-07-16T11:02:17;3.20;;;2.63;;
21181;SDS011;10749;46.296;7.524;2023-07-16T11:04:43;3.13;;;2.65;;
21181;SDS011;10749;46.296;7.524;2023-07-16T11:07:11;4.82;;;2.75;;
21181;SDS011;10749;46.296;7.524;2023-07-16T11:09:44;4.18;;;2.60;;
21181;SDS011;10749;46.296;7.524;2023-07-16T11:12:18;5.95;;;2.97;;
21181;SDS011;10749;46.296;7.524;2023-07-16T11:14:46;3.50;;;2.55;;
21181;SDS011;10749;46.296;7.524;2023-07-16T11:17:12;3.30;;;2.60;;
21181;SDS011;10749;46.296;7.524;2023-07-16T11:19:40;5.20;;;3.00;;
21181;SDS011;10749;46.296;7.524;2023-07-16T11:22:07;5.10;;;3.05;;
21181;SDS011;10749;46.296;7.524;2023-07-16T11:24:36;3.67;;;2.58;;
21181;SDS011;10749;46.296;7.524;2023-07-16T11:27:03;3.88;;;2.60;;
21181;SDS011;10749;46.296;7.524;2023-07-16T11:29:33;4.60;;;2.80;;
21181;SDS011;10749;46.296;7.524;2023-07-16T11:32:01;4.15;;;2.78;;
21181;SDS011;10749;46.296;7.524;2023-07-16T11:34:27;4.82;;;2.97;;
21181;SDS011;10749;46.296;7.524;2023-07-16T11:36:52;4.28;;;2.90;;
21181;SDS011;10749;46.296;7.524;2023-07-16T11:39:18;6.93;;;3.00;;
21181;SDS011;10749;46.296;7.524;2023-07-16T11:41:53;3.88;;;2.78;;
21181;SDS011;10749;46.296;7.524;2023-07-16T11:44:20;4.97;;;2.72;;
21181;SDS011;10749;46.296;7.524;2023-07-16T11:46:46;4.50;;;3.00;;
21181;SDS011;10749;46.296;7.524;2023-07-16T11:49:11;5.25;;;3.03;;
21181;SDS011;10749;46.296;7.524;2023-07-16T11:51:36;4.07;;;3.30;;
21181;SDS011;10749;46.296;7.524;2023-07-16T11:54:02;3.75;;;3.25;;
21181;SDS011;10749;46.296;7.524;2023-07-16T11:56:27;3.28;;;2.72;;
21181;SDS011;10749;46.296;7.524;2023-07-16T11:58:53;4.45;;;3.13;;
21181;SDS011;10749;46.296;7.524;2023-07-16T12:01:18;5.35;;;3.28;;
21181;SDS011;10749;46.296;7.524;2023-07-16T12:03:43;6.30;;;3.40;;
21181;SDS011;10749;46.296;7.524;2023-07-16T12:06:09;6.05;;;3.35;;
21181;SDS011;10749;46.296;7.524;2023-07-16T12:08:34;4.97;;;3.00;;
21181;SDS011;10749;46.296;7.524;2023-07-16T12:10:59;5.22;;;3.17;;
21181;SDS011;10749;46.296;7.524;2023-07-16T12:13:25;6.15;;;3.85;;
21181;SDS011;10749;46.296;7.524;2023-07-16T12:15:50;5.60;;;3.53;;
21181;SDS011;10749;46.296;7.524;2023-07-16T12:18:15;4.57;;;3.00;;
21181;SDS011;10749;46.296;7.524;2023-07-16T12:20:40;3.78;;;3.05;;
21181;SDS011;10749;46.296;7.524;2023-07-16T12:23:06;4.35;;;3.28;;
21181;SDS011;10749;46.296;7.524;2023-07-16T12:25:31;5.30;;;3.03;;
21181;SDS011;10749;46.296;7.524;2023-07-16T12:27:56;3.30;;;3.00;;
21181;SDS011;10749;46.296;7.524;2023-07-16T12:30:23;5.93;;;3.40;;
21181;SDS011;10749;46.296;7.524;2023-07-16T12:32:49;4.70;;;3.17;;
21181;SDS011;10749;46.296;7.524;2023-07-16T12:35:14;5.07;;;3.30;;
21181;SDS011;10749;46.296;7.524;2023-07-16T12:37:39;4.97;;;3.15;;
21181;SDS011;10749;46.296;7.524;2023-07-16T12:40:05;5.97;;;3.00;;
21181;SDS011;10749;46.296;7.524;2023-07-16T12:42:31;5.78;;;3.38;;
21181;SDS011;10749;46.296;7.524;2023-07-16T12:44:57;3.72;;;3.15;;
21181;SDS011;10749;46.296;7.524;2023-07-16T12:47:22;5.82;;;3.45;;
21181;SDS011;10749;46.296;7.524;2023-07-16T12:49:47;3.20;;;2.90;;
21181;SDS011;10749;46.296;7.524;2023-07-16T12:52:13;4.28;;;2.97;;
21181;SDS011;10749;46.296;7.524;2023-07-16T12:54:38;4.53;;;2.92;;
21181;SDS011;10749;46.296;7.524;2023-07-16T12:57:03;4.00;;;3.20;;
21181;SDS011;10749;46.296;7.524;2023-07-16T12:59:29;3.53;;;3.00;;
21181;SDS011;10749;46.296;7.524;2023-07-16T13:01:54;4.32;;;2.95;;
21181;SDS011;10749;46.296;7.524;2023-07-16T13:04:21;5.85;;;3.10;;
21181;SDS011;10749;46.296;7.524;2023-07-16T13:06:46;5.07;;;3.90;;
21181;SDS011;10749;46.296;7.524;2023-07-16T13:09:13;5.22;;;3.38;;
21181;SDS011;10749;46.296;7.524;2023-07-16T13:11:39;5.07;;;3.17;;
21181;SDS011;10749;46.296;7.524;2023-07-16T13:14:04;3.22;;;2.90;;
21181;SDS011;10749;46.296;7.524;2023-07-16T13:16:30;4.88;;;3.30;;
21181;SDS011;10749;46.296;7.524;2023-07-16T13:18:55;3.63;;;3.05;;
21181;SDS011;10749;46.296;7.524;2023-07-16T13:21:20;4.63;;;3.65;;
21181;SDS011;10749;46.296;7.524;2023-07-16T13:23:45;4.32;;;3.30;;
21181;SDS011;10749;46.296;7.524;2023-07-16T13:26:11;4.70;;;3.60;;
21181;SDS011;10749;46.296;7.524;2023-07-16T13:28:36;4.95;;;3.50;;
21181;SDS011;10749;46.296;7.524;2023-07-16T13:31:01;4.38;;;3.58;;
21181;SDS011;10749;46.296;7.524;2023-07-16T13:33:27;3.83;;;3.25;;
21181;SDS011;10749;46.296;7.524;2023-07-16T13:35:52;3.80;;;3.28;;
21181;SDS011;10749;46.296;7.524;2023-07-16T13:38:18;3.40;;;3.10;;
21181;SDS011;10749;46.296;7.524;2023-07-16T13:40:43;4.28;;;3.67;;
21181;SDS011;10749;46.296;7.524;2023-07-16T13:43:08;4.30;;;3.40;;
21181;SDS011;10749;46.296;7.524;2023-07-16T13:45:33;4.05;;;2.97;;
21181;SDS011;10749;46.296;7.524;2023-07-16T13:47:59;4.07;;;3.20;;
21181;SDS011;10749;46.296;7.524;2023-07-16T13:50:24;3.72;;;3.10;;
21181;SDS011;10749;46.296;7.524;2023-07-16T13:52:49;4.28;;;3.10;;
21181;SDS011;10749;46.296;7.524;2023-07-16T13:55:15;4.07;;;3.13;;
21181;SDS011;10749;46.296;7.524;2023-07-16T13:57:40;3.80;;;2.72;;
21181;SDS011;10749;46.296;7.524;2023-07-16T14:00:06;4.28;;;3.45;;
21181;SDS011;10749;46.296;7.524;2023-07-16T14:02:34;4.30;;;2.83;;
21181;SDS011;10749;46.296;7.524;2023-07-16T14:05:00;3.25;;;2.95;;
21181;SDS011;10749;46.296;7.524;2023-07-16T14:07:25;3.80;;;2.55;;
21181;SDS011;10749;46.296;7.524;2023-07-16T14:09:50;3.72;;;2.70;;
21181;SDS011;10749;46.296;7.524;2023-07-16T14:12:15;3.92;;;2.83;;
21181;SDS011;10749;46.296;7.524;2023-07-16T14:14:41;4.75;;;2.85;;
21181;SDS011;10749;46.296;7.524;2023-07-16T14:17:06;3.97;;;2.80;;
21181;SDS011;10749;46.296;7.524;2023-07-16T14:19:32;5.20;;;3.03;;
21181;SDS011;10749;46.296;7.524;2023-07-16T14:21:57;4.22;;;2.78;;
21181;SDS011;10749;46.296;7.524;2023-07-16T14:24:22;3.25;;;2.95;;
21181;SDS011;10749;46.296;7.524;2023-07-16T14:26:48;4.45;;;2.97;;
21181;SDS011;10749;46.296;7.524;2023-07-16T14:29:14;3.38;;;2.80;;
21181;SDS011;10749;46.296;7.524;2023-07-16T14:31:40;5.45;;;2.90;;
21181;SDS011;10749;46.296;7.524;2023-07-16T14:34:05;4.32;;;2.63;;
21181;SDS011;10749;46.296;7.524;2023-07-16T14:36:30;5.00;;;2.72;;
21181;SDS011;10749;46.296;7.524;2023-07-16T14:38:55;4.20;;;2.78;;
21181;SDS011;10749;46.296;7.524;2023-07-16T14:41:21;4.18;;;2.70;;
21181;SDS011;10749;46.296;7.524;2023-07-16T14:43:47;4.40;;;3.80;;
21181;SDS011;10749;46.296;7.524;2023-07-16T14:46:14;3.60;;;3.30;;